Time;durP1;ratioP1;P1;durP2;ratioP2;P2;SDS_P1;SDS_P2;PMS_P1;PMS_P2;Temp;Humidity;BMP_temperature;BMP_pressure;BME280_temperature;BME280_humidity;BME280_pressure;Samples;Min_cycle;Max_cycle;Signal;HPM_P1;HPM_P2
2022/08/15 00:01:25;;;;;;;32.83;29.17;;;;;;;;;;5072874;28;20028;-83
2022/08/15 00:03:53;;;;;;;34.17;28.38;;;;;;;;;;5073453;28;20025;-83
2022/08/15 00:06:22;;;;;;;34.75;28.90;;;;;;;;;;5073037;28;20529;-81
2022/08/15 00:08:50;;;;;;;30.83;27.50;;;;;;;;;;5072570;28;20056;-80
2022/08/15 00:11:18;;;;;;;33.47;26.13;;;;;;;;;;5072907;28;20081;-79
2022/08/15 00:13:50;;;;;;;33.85;27.13;;;;;;;;;;5071958;28;20119;-83
2022/08/15 00:16:18;;;;;;;29.15;25.90;;;;;;;;;;5068831;28;20132;-81
2022/08/15 00:18:45;;;;;;;29.77;26.48;;;;;;;;;;5052659;28;20544;-80
2022/08/15 00:21:11;;;;;;;31.23;27.38;;;;;;;;;;5052481;28;20384;-80
2022/08/15 00:23:41;;;;;;;29.58;25.75;;;;;;;;;;5053034;28;20351;-80
2022/08/15 00:26:08;;;;;;;30.17;26.98;;;;;;;;;;5052520;28;20474;-81
2022/08/15 00:28:35;;;;;;;26.73;24.02;;;;;;;;;;5052794;28;20031;-82
2022/08/15 00:31:01;;;;;;;28.10;24.08;;;;;;;;;;5052761;28;20029;-81
2022/08/15 00:33:28;;;;;;;29.48;24.98;;;;;;;;;;5060811;28;20078;-82
2022/08/15 00:35:55;;;;;;;29.15;25.05;;;;;;;;;;5072708;28;20078;-82
2022/08/15 00:38:23;;;;;;;26.58;23.75;;;;;;;;;;5072729;28;20017;-82
2022/08/15 00:43:38;;;;;;;31.17;24.33;;;;;;;;;;5073696;28;20082;-80
2022/08/15 00:46:06;;;;;;;28.67;24.73;;;;;;;;;;5072617;28;20035;-81
2022/08/15 00:48:41;;;;;;;30.67;25.38;;;;;;;;;;5072282;28;20046;-83
2022/08/15 00:51:09;;;;;;;31.42;27.90;;;;;;;;;;5072301;28;20431;-82
2022/08/15 00:53:36;;;;;;;30.55;26.98;;;;;;;;;;5072280;28;20032;-81
2022/08/15 00:56:03;;;;;;;33.00;26.63;;;;;;;;;;5072356;28;20044;-82
2022/08/15 00:58:29;;;;;;;29.58;26.38;;;;;;;;;;5072408;28;20030;-82
2022/08/15 01:00:55;;;;;;;31.35;24.58;;;;;;;;;;5072637;28;20016;-81
2022/08/15 01:03:26;;;;;;;28.17;24.92;;;;;;;;;;5072200;28;20069;-80
2022/08/15 01:05:56;;;;;;;30.30;24.77;;;;;;;;;;5072170;28;20097;-81
2022/08/15 01:08:36;;;;;;;30.45;25.27;;;;;;;;;;5072366;28;20455;-82
2022/08/15 01:11:27;;;;;;;;;;;;;;;;;;;;;
2022/08/15 01:14:17;;;;;;;29.83;24.75;;;;;;;;;;5073372;28;20481;-81
2022/08/15 01:17:05;;;;;;;26.58;23.77;;;;;;;;;;5071476;28;20063;-81
2022/08/15 01:19:52;;;;;;;28.65;25.02;;;;;;;;;;5072801;28;20510;-82
2022/08/15 01:22:31;;;;;;;27.95;25.05;;;;;;;;;;5072096;28;20060;-81
2022/08/15 01:25:10;;;;;;;27.63;24.20;;;;;;;;;;5072162;28;20078;-81
2022/08/15 01:27:58;;;;;;;28.67;25.45;;;;;;;;;;5072133;28;20064;-82
2022/08/15 01:30:27;;;;;;;28.17;25.17;;;;;;;;;;5072141;28;20032;-82
2022/08/15 01:32:54;;;;;;;27.92;24.55;;;;;;;;;;5072077;28;20016;-82
2022/08/15 01:35:20;;;;;;;31.30;25.77;;;;;;;;;;5071972;28;20028;-80
2022/08/15 01:37:50;;;;;;;30.98;26.63;;;;;;;;;;5071952;28;20025;-81
2022/08/15 01:40:31;;;;;;;33.03;27.27;;;;;;;;;;5071775;28;20025;-82
2022/08/15 01:43:15;;;;;;;28.80;24.38;;;;;;;;;;5072174;28;20453;-80
2022/08/15 01:45:49;;;;;;;31.48;24.98;;;;;;;;;;5071919;28;20033;-81
2022/08/15 01:48:24;;;;;;;28.73;22.92;;;;;;;;;;5072076;28;20481;-82
2022/08/15 01:50:52;;;;;;;27.88;23.85;;;;;;;;;;5072074;28;20523;-81
2022/08/15 01:53:23;;;;;;;30.17;24.90;;;;;;;;;;5072082;28;20418;-81
2022/08/15 01:56:11;;;;;;;28.08;23.45;;;;;;;;;;5075531;28;20035;-82
2022/08/15 01:58:39;;;;;;;25.83;22.70;;;;;;;;;;5075868;28;20044;-82
2022/08/15 02:01:08;;;;;;;28.27;24.83;;;;;;;;;;5074962;28;20017;-81
2022/08/15 02:03:38;;;;;;;29.17;24.52;;;;;;;;;;5075140;28;20119;-81
2022/08/15 02:06:12;;;;;;;28.55;24.80;;;;;;;;;;5075143;28;20024;-81
2022/08/15 02:08:41;;;;;;;27.92;24.45;;;;;;;;;;5075274;28;20033;-81
2022/08/15 02:11:11;;;;;;;29.48;25.50;;;;;;;;;;5075213;28;20376;-81
2022/08/15 02:13:43;;;;;;;27.38;24.48;;;;;;;;;;5075294;28;20434;-83
2022/08/15 02:16:09;;;;;;;28.33;24.75;;;;;;;;;;5074761;28;20056;-81
2022/08/15 02:18:36;;;;;;;29.42;24.67;;;;;;;;;;5074986;28;20031;-82
2022/08/15 02:21:02;;;;;;;29.73;23.70;;;;;;;;;;5075166;28;20389;-82
2022/08/15 02:23:28;;;;;;;28.95;23.63;;;;;;;;;;5074973;28;20035;-82
2022/08/15 02:25:55;;;;;;;26.92;23.27;;;;;;;;;;5075096;28;20024;-81
2022/08/15 02:28:22;;;;;;;27.10;23.75;;;;;;;;;;5075125;28;20021;-83
2022/08/15 02:30:55;;;;;;;26.27;23.40;;;;;;;;;;5070971;28;20513;-83
2022/08/15 02:33:28;;;;;;;26.00;23.20;;;;;;;;;;5075085;28;20025;-84
2022/08/15 02:35:55;;;;;;;25.88;23.08;;;;;;;;;;5073988;28;20032;-83
2022/08/15 02:38:21;;;;;;;27.33;24.52;;;;;;;;;;5074388;28;20025;-83
2022/08/15 02:40:48;;;;;;;32.13;25.75;;;;;;;;;;5074734;28;20020;-80
2022/08/15 02:43:15;;;;;;;30.13;25.70;;;;;;;;;;5074470;28;20106;-83
2022/08/15 02:45:47;;;;;;;28.25;24.83;;;;;;;;;;5074889;28;20059;-82
2022/08/15 02:48:14;;;;;;;32.67;26.63;;;;;;;;;;5075067;28;20085;-82
2022/08/15 02:50:40;;;;;;;28.75;25.60;;;;;;;;;;5074706;28;20029;-82
2022/08/15 02:53:14;;;;;;;27.52;24.10;;;;;;;;;;5074425;28;20075;-83
2022/08/15 02:55:46;;;;;;;34.38;26.88;;;;;;;;;;5074006;28;20024;-82
2022/08/15 02:58:13;;;;;;;29.25;25.30;;;;;;;;;;5074166;28;20385;-81
2022/08/15 03:00:44;;;;;;;35.63;24.98;;;;;;;;;;5073972;28;20462;-82
2022/08/15 03:03:12;;;;;;;30.50;26.60;;;;;;;;;;5073858;28;20021;-81
2022/08/15 03:05:42;;;;;;;32.90;25.80;;;;;;;;;;5073133;28;20025;-81
2022/08/15 03:08:11;;;;;;;29.02;25.83;;;;;;;;;;5073948;28;20024;-82
2022/08/15 03:10:38;;;;;;;28.38;25.38;;;;;;;;;;5073850;28;20028;-83
2022/08/15 03:13:06;;;;;;;27.55;24.42;;;;;;;;;;5073936;28;20029;-82
2022/08/15 03:15:50;;;;;;;32.08;25.63;;;;;;;;;;5073657;28;20040;-81
2022/08/15 03:18:19;;;;;;;32.63;25.80;;;;;;;;;;5098640;28;20136;-82
2022/08/15 03:20:51;;;;;;;37.50;27.63;;;;;;;;;;5087672;28;20118;-83
2022/08/15 03:23:32;;;;;;;34.35;26.83;;;;;;;;;;5073989;28;20540;-82
2022/08/15 03:25:59;;;;;;;31.17;26.40;;;;;;;;;;5073846;28;20378;-82
2022/08/15 03:28:31;;;;;;;30.45;26.10;;;;;;;;;;5077715;28;20039;-82
2022/08/15 03:31:00;;;;;;;31.60;25.38;;;;;;;;;;5098330;28;20013;-81
2022/08/15 03:36:22;;;;;;;30.58;25.70;;;;;;;;;;5099379;28;20032;-81
2022/08/15 03:38:53;;;;;;;31.50;25.90;;;;;;;;;;5096182;28;20033;-82
2022/08/15 03:41:30;;;;;;;30.45;24.73;;;;;;;;;;5074005;28;20465;-81
2022/08/15 03:43:58;;;;;;;26.48;22.80;;;;;;;;;;5074344;28;20107;-81
2022/08/15 03:46:25;;;;;;;27.83;24.85;;;;;;;;;;5071536;28;20039;-81
2022/08/15 03:48:56;;;;;;;30.83;24.70;;;;;;;;;;5073436;28;20045;-82
2022/08/15 03:51:26;;;;;;;29.23;25.88;;;;;;;;;;5074127;28;20020;-82
2022/08/15 03:54:02;;;;;;;31.52;25.45;;;;;;;;;;5073119;28;20115;-82
2022/08/15 03:56:33;;;;;;;31.52;26.15;;;;;;;;;;5072852;28;20060;-83
2022/08/15 03:59:14;;;;;;;32.58;26.17;;;;;;;;;;5072866;28;20554;-82
2022/08/15 04:02:03;;;;;;;28.75;25.55;;;;;;;;;;5072515;28;20078;-82
2022/08/15 04:04:32;;;;;;;28.52;24.08;;;;;;;;;;5072715;28;20035;-82
2022/08/15 04:07:08;;;;;;;27.25;24.15;;;;;;;;;;5073714;28;20024;-82
2022/08/15 04:09:54;;;;;;;29.55;22.92;;;;;;;;;;5072706;28;20025;-82
2022/08/15 04:12:55;;;;;;;28.35;24.95;;;;;;;;;;5072692;28;20020;-82
2022/08/15 04:25:27;;;;;;;;;;;;;;;;;;;;;
2022/08/15 04:28:20;;;;;;;;;;;;;;;;;;;;;
2022/08/15 04:30:49;;;;;;;28.42;24.00;;;;;;;;;;5073562;28;20034;-82
2022/08/15 04:33:17;;;;;;;33.13;24.95;;;;;;;;;;5072294;28;20549;-81
2022/08/15 04:36:04;;;;;;;28.52;24.67;;;;;;;;;;5072741;28;20077;-81
2022/08/15 04:38:32;;;;;;;38.95;25.52;;;;;;;;;;5072784;28;20074;-81
2022/08/15 04:40:58;;;;;;;32.05;25.38;;;;;;;;;;5072744;28;20027;-81
2022/08/15 04:43:25;;;;;;;34.03;25.35;;;;;;;;;;5072795;28;20082;-82
2022/08/15 04:45:51;;;;;;;28.63;25.17;;;;;;;;;;5072649;28;20024;-81
2022/08/15 04:48:18;;;;;;;33.53;25.88;;;;;;;;;;5072425;28;20025;-82
2022/08/15 04:50:45;;;;;;;30.48;25.17;;;;;;;;;;5072540;28;20024;-82
2022/08/15 04:53:13;;;;;;;32.83;24.75;;;;;;;;;;5072618;28;20111;-81
2022/08/15 04:55:42;;;;;;;31.70;24.85;;;;;;;;;;5072223;28;20029;-81
2022/08/15 04:58:08;;;;;;;34.00;25.20;;;;;;;;;;5068284;28;20025;-81
2022/08/15 05:00:37;;;;;;;30.08;24.70;;;;;;;;;;5071980;28;20119;-81
2022/08/15 05:03:05;;;;;;;30.27;24.52;;;;;;;;;;5072513;28;20025;-82
2022/08/15 05:05:31;;;;;;;32.35;26.17;;;;;;;;;;5072116;28;20028;-82
2022/08/15 05:07:58;;;;;;;31.23;25.40;;;;;;;;;;5072347;28;20465;-82
2022/08/15 05:10:24;;;;;;;39.33;30.33;;;;;;;;;;5072294;28;20115;-81
2022/08/15 05:12:50;;;;;;;47.97;30.85;;;;;;;;;;5072307;28;20462;-81
2022/08/15 05:15:18;;;;;;;45.13;28.70;;;;;;;;;;5072185;28;20091;-81
2022/08/15 05:17:47;;;;;;;44.13;27.42;;;;;;;;;;5069666;28;20045;-82
2022/08/15 05:20:14;;;;;;;39.42;27.67;;;;;;;;;;5072376;28;20021;-82
2022/08/15 05:22:58;;;;;;;48.55;28.63;;;;;;;;;;5072271;28;20521;-81
2022/08/15 05:25:24;;;;;;;43.67;30.92;;;;;;;;;;5072431;28;20111;-82
2022/08/15 05:27:51;;;;;;;45.90;30.40;;;;;;;;;;5072190;28;20419;-82
2022/08/15 05:30:18;;;;;;;56.45;32.95;;;;;;;;;;5075049;28;20373;-81
2022/08/15 05:32:44;;;;;;;47.28;30.00;;;;;;;;;;5076012;28;20012;-81
2022/08/15 05:35:10;;;;;;;43.33;28.77;;;;;;;;;;5075990;28;20055;-82
2022/08/15 05:37:36;;;;;;;39.00;27.80;;;;;;;;;;5075802;28;20389;-81
2022/08/15 05:40:04;;;;;;;47.42;29.00;;;;;;;;;;5076201;28;20020;-82
2022/08/15 05:42:35;;;;;;;40.83;27.73;;;;;;;;;;5075794;28;20029;-82
2022/08/15 05:45:16;;;;;;;43.97;28.02;;;;;;;;;;5074731;28;20461;-81
2022/08/15 05:47:44;;;;;;;39.70;27.55;;;;;;;;;;5056978;28;20174;-82
2022/08/15 05:50:20;;;;;;;40.42;26.58;;;;;;;;;;5055614;28;20023;-82
2022/08/15 05:53:04;;;;;;;37.90;24.85;;;;;;;;;;5060877;28;20033;-83
2022/08/15 05:55:36;;;;;;;33.47;24.08;;;;;;;;;;5067196;28;20462;-82
2022/08/15 05:58:21;;;;;;;32.88;25.30;;;;;;;;;;5055415;28;20092;-85
2022/08/15 06:00:49;;;;;;;33.35;24.00;;;;;;;;;;5064482;28;20029;-82
2022/08/15 06:03:22;;;;;;;31.30;23.13;;;;;;;;;;5070948;28;20483;-83
2022/08/15 06:05:54;;;;;;;30.52;23.95;;;;;;;;;;5075570;28;20032;-81
2022/08/15 06:08:28;;;;;;;35.33;23.50;;;;;;;;;;5075561;28;20024;-82
2022/08/15 06:11:11;;;;;;;29.65;22.48;;;;;;;;;;5074944;28;20032;-83
2022/08/15 06:13:55;;;;;;;29.60;22.00;;;;;;;;;;5075228;28;20104;-82
2022/08/15 06:16:37;;;;;;;32.67;22.15;;;;;;;;;;5075066;28;20114;-82
2022/08/15 06:19:06;;;;;;;35.20;22.75;;;;;;;;;;5075056;28;20067;-83
2022/08/15 06:21:43;;;;;;;40.58;26.35;;;;;;;;;;5074963;28;20145;-82
2022/08/15 06:24:10;;;;;;;33.28;28.50;;;;;;;;;;5075204;28;20032;-81
2022/08/15 06:26:49;;;;;;;37.58;26.63;;;;;;;;;;5074554;28;20020;-83
2022/08/15 06:29:44;;;;;;;31.50;24.30;;;;;;;;;;5074979;28;20025;-83
2022/08/15 06:32:17;;;;;;;28.90;22.95;;;;;;;;;;5057521;28;20036;-81
2022/08/15 06:35:10;;;;;;;27.58;23.40;;;;;;;;;;5074637;28;20067;-82
2022/08/15 06:37:39;;;;;;;29.67;22.27;;;;;;;;;;5071204;28;20036;-81
2022/08/15 06:40:12;;;;;;;31.67;22.80;;;;;;;;;;5074448;28;20047;-83
2022/08/15 06:42:38;;;;;;;;;;;;;;;;;;5075113;28;20481;-83
2022/08/15 06:45:10;;;;;;;33.63;23.23;;;;;;;;;;5074513;28;19915;-79
2022/08/15 06:47:37;;;;;;;30.83;20.83;;;;;;;;;;5074486;28;20028;-81
2022/08/15 06:50:07;;;;;;;25.95;23.20;;;;;;;;;;5074580;28;20036;-81
2022/08/15 06:52:34;;;;;;;25.90;21.13;;;;;;;;;;5074664;28;20047;-81
2022/08/15 06:55:01;;;;;;;24.10;21.42;;;;;;;;;;5074477;28;20032;-83
2022/08/15 06:57:33;;;;;;;31.38;22.00;;;;;;;;;;5074360;28;20170;-83
2022/08/15 07:00:14;;;;;;;27.70;21.25;;;;;;;;;;5074186;28;20027;-82
2022/08/15 07:03:01;;;;;;;27.02;21.23;;;;;;;;;;5074495;28;20062;-84
2022/08/15 07:05:45;;;;;;;24.20;21.63;;;;;;;;;;5072781;28;20461;-81
2022/08/15 07:08:17;;;;;;;26.25;22.60;;;;;;;;;;5073888;28;20028;-81
2022/08/15 07:10:50;;;;;;;27.77;23.23;;;;;;;;;;5074215;28;20489;-82
2022/08/15 07:13:20;;;;;;;28.80;20.80;;;;;;;;;;5074467;28;20393;-82
2022/08/15 07:15:56;;;;;;;24.77;20.85;;;;;;;;;;5073961;28;20025;-83
2022/08/15 07:18:31;;;;;;;25.60;20.17;;;;;;;;;;5073845;28;20086;-82
2022/08/15 07:21:03;;;;;;;20.67;18.30;;;;;;;;;;5073816;28;20110;-82
2022/08/15 07:24:08;;;;;;;28.53;20.57;;;;;;;;;;5074019;28;20027;-81
2022/08/15 07:26:41;;;;;;;28.10;22.00;;;;;;;;;;5073455;28;20465;-82
2022/08/15 07:29:12;;;;;;;25.95;19.73;;;;;;;;;;5073302;28;20043;-85
2022/08/15 07:31:38;;;;;;;22.45;20.08;;;;;;;;;;5074019;28;20028;-81
2022/08/15 07:34:16;;;;;;;28.67;19.27;;;;;;;;;;5073861;28;20028;-83
2022/08/15 07:36:55;;;;;;;21.50;17.65;;;;;;;;;;5073724;28;20036;-82
2022/08/15 07:39:24;;;;;;;21.85;19.08;;;;;;;;;;5073403;28;20021;-82
2022/08/15 07:41:50;;;;;;;18.33;16.40;;;;;;;;;;5073287;28;20023;-82
2022/08/15 07:44:22;;;;;;;21.90;17.40;;;;;;;;;;5073390;28;20028;-82
2022/08/15 07:46:48;;;;;;;;;;;;;;;;;;5074034;28;20035;-83
2022/08/15 07:50:34;;;;;;;22.25;19.02;;;;;;;;;;5073441;28;19939;-83
2022/08/15 07:52:47;;;;;;;20.73;17.92;;;;;;;;;;5064507;28;20036;-82
2022/08/15 07:55:13;;;;;;;21.33;18.60;;;;;;;;;;5073726;28;20028;-85
2022/08/15 07:57:41;;;;;;;21.90;16.88;;;;;;;;;;5073212;28;20036;-82
2022/08/15 08:00:10;;;;;;;20.40;18.38;;;;;;;;;;5078016;28;20021;-84
2022/08/15 08:03:15;;;;;;;21.67;17.50;;;;;;;;;;5082527;28;20024;-87
2022/08/15 08:05:54;;;;;;;19.92;16.70;;;;;;;;;;5001206;28;20081;-88
2022/08/15 08:08:22;;;;;;;21.95;17.52;;;;;;;;;;4996945;28;20535;-87
2022/08/15 08:10:56;;;;;;;21.08;17.40;;;;;;;;;;5041124;28;20040;-87
2022/08/15 08:13:34;;;;;;;19.77;17.60;;;;;;;;;;5074081;28;20020;-88
2022/08/15 08:16:08;;;;;;;20.45;17.90;;;;;;;;;;5073770;28;20029;-87
2022/08/15 08:18:41;;;;;;;19.00;17.00;;;;;;;;;;5074081;28;20373;-87
2022/08/15 08:21:12;;;;;;;19.45;16.90;;;;;;;;;;5073831;28;20027;-84
2022/08/15 08:23:42;;;;;;;18.33;16.27;;;;;;;;;;5073783;28;20052;-89
2022/08/15 08:26:24;;;;;;;20.40;16.95;;;;;;;;;;5073733;28;20052;-87
2022/08/15 08:29:05;;;;;;;20.03;16.33;;;;;;;;;;5073790;28;20035;-86
2022/08/15 08:31:36;;;;;;;17.67;15.73;;;;;;;;;;5074131;28;20254;-87
2022/08/15 08:34:09;;;;;;;21.60;17.75;;;;;;;;;;5073562;28;20100;-87
2022/08/15 08:37:08;;;;;;;20.30;17.50;;;;;;;;;;5073541;28;20028;-88
2022/08/15 08:41:24;;;;;;;16.60;14.90;;;;;;;;;;5074829;28;20428;-88
2022/08/15 08:42:57;;;;;;;19.35;14.80;;;;;;;;;;5074206;28;20113;-85
2022/08/15 08:45:27;;;;;;;16.73;15.00;;;;;;;;;;5072868;28;20070;-84
2022/08/15 08:48:04;;;;;;;20.55;16.80;;;;;;;;;;5072741;28;20501;-83
2022/08/15 08:50:39;;;;;;;17.63;15.75;;;;;;;;;;5073366;28;20020;-83
2022/08/15 08:53:08;;;;;;;18.05;15.77;;;;;;;;;;5072603;28;20546;-83
2022/08/15 08:55:47;;;;;;;17.85;14.98;;;;;;;;;;5073552;28;20051;-86
2022/08/15 08:58:17;;;;;;;16.35;14.75;;;;;;;;;;5073403;28;20050;-83
2022/08/15 09:00:47;;;;;;;20.42;15.35;;;;;;;;;;5073020;28;20393;-84
2022/08/15 09:03:14;;;;;;;16.90;15.18;;;;;;;;;;5072887;28;20029;-82
2022/08/15 09:05:51;;;;;;;16.48;13.93;;;;;;;;;;5076762;28;20103;-84
2022/08/15 09:08:25;;;;;;;14.77;13.15;;;;;;;;;;5077272;28;20031;-86
2022/08/15 09:10:54;;;;;;;14.35;11.77;;;;;;;;;;5077365;28;20029;-84
2022/08/15 09:13:33;;;;;;;15.60;12.63;;;;;;;;;;5077216;28;20120;-84
2022/08/15 09:16:01;;;;;;;14.15;11.65;;;;;;;;;;5076728;28;20111;-85
2022/08/15 09:18:46;;;;;;;13.30;11.38;;;;;;;;;;5076728;28;20473;-83
2022/08/15 09:21:15;;;;;;;19.23;12.05;;;;;;;;;;5076370;28;20541;-81
2022/08/15 09:23:43;;;;;;;14.23;11.23;;;;;;;;;;5076535;28;20024;-84
2022/08/15 09:26:13;;;;;;;16.48;12.05;;;;;;;;;;5076592;28;20029;-82
2022/08/15 09:28:41;;;;;;;15.32;12.02;;;;;;;;;;5076169;28;20028;-85
2022/08/15 09:31:13;;;;;;;14.77;13.20;;;;;;;;;;5076833;28;20029;-82
2022/08/15 09:34:00;;;;;;;19.80;11.98;;;;;;;;;;5076444;28;20032;-83
2022/08/15 09:36:26;;;;;;;16.42;12.05;;;;;;;;;;5075649;28;20036;-85
2022/08/15 09:39:09;;;;;;;13.90;12.40;;;;;;;;;;5076360;28;20113;-83
2022/08/15 09:41:37;;;;;;;16.55;11.05;;;;;;;;;;5076661;28;20021;-85
2022/08/15 09:44:19;;;;;;;16.30;11.45;;;;;;;;;;5076562;28;20020;-86
2022/08/15 09:46:51;;;;;;;12.13;10.77;;;;;;;;;;5076191;28;20024;-83
2022/08/15 09:49:24;;;;;;;12.80;10.88;;;;;;;;;;5075731;28;20051;-86
2022/08/15 09:51:59;;;;;;;12.90;10.38;;;;;;;;;;5075843;28;20036;-84
2022/08/15 09:54:29;;;;;;;11.30;10.20;;;;;;;;;;5076250;28;20029;-85
2022/08/15 09:57:20;;;;;;;11.00;9.90;;;;;;;;;;5076034;28;20029;-84
2022/08/15 09:59:51;;;;;;;13.23;10.00;;;;;;;;;;5075453;28;20107;-79
2022/08/15 10:02:19;;;;;;;14.15;11.63;;;;;;;;;;5074810;28;20259;-79
2022/08/15 10:04:45;;;;;;;13.23;11.55;;;;;;;;;;5075028;28;20025;-79
2022/08/15 10:07:11;;;;;;;13.95;11.18;;;;;;;;;;5074926;28;20028;-79
2022/08/15 10:09:41;;;;;;;14.48;10.57;;;;;;;;;;5074529;28;20035;-80
2022/08/15 10:12:07;;;;;;;14.50;11.57;;;;;;;;;;5074835;28;20028;-79
2022/08/15 10:14:40;;;;;;;14.30;11.90;;;;;;;;;;5075476;28;20363;-83
2022/08/15 10:17:37;;;;;;;11.18;10.07;;;768.10;2432.00;;;;;;5074194;28;20049;-79
2022/08/15 10:20:15;;;;;;;15.48;10.02;;;;;;;;;;5075230;28;20115;-81
2022/08/15 10:22:44;;;;;;;13.43;9.90;;;;;;;;;;5075339;28;20031;-83
2022/08/15 10:25:23;;;;;;;11.27;9.85;;;;;;;;;;5074972;28;20028;-81
2022/08/15 10:27:57;;;;;;;18.70;11.25;;;;;;;;;;5074988;28;20037;-83
2022/08/15 10:30:33;;;;;;;15.70;10.90;;;;;;;;;;5075033;28;20024;-82
2022/08/15 10:33:00;;;;;;;13.82;10.70;;;;;;;;;;5075188;28;20496;-84
2022/08/15 10:35:55;;;;;;;10.65;9.60;;;;;;;;;;5074937;28;20029;-81
2022/08/15 10:38:32;;;;;;;13.43;10.75;;;;;;;;;;5072629;28;20402;-86
2022/08/15 10:41:16;;;;;;;13.02;11.77;;;;;;;;;;5075808;28;20090;-84
2022/08/15 10:43:55;;;;;;;11.38;10.27;;;;;;;;;;5075600;28;20055;-86
2022/08/15 10:46:23;;;;;;;15.23;13.68;;;;;;;;;;5075431;28;20132;-88
2022/08/15 10:48:52;;;;;;;12.57;11.20;;;;;;;;;;5075240;28;20032;-86
2022/08/15 10:51:38;;;;;;;15.57;12.45;;;;;;;;;;5075297;28;20054;-81
2022/08/15 10:54:22;;;;;;;13.68;11.43;;;;;;;;;;5075355;28;20020;-85
2022/08/15 10:56:54;;;;;;;12.32;10.65;;;;;;;;;;5075616;28;20609;-85
2022/08/15 10:59:24;;;;;;;14.43;10.38;;;;;;;;;;5075053;28;20529;-86
2022/08/15 11:01:51;;;;;;;15.90;10.93;;;;;;;;;;5074845;28;20021;-83
2022/08/15 11:04:36;;;;;;;16.23;14.18;;;;;;;;;;5073642;28;20052;-84
2022/08/15 11:07:20;;;;;;;13.20;10.93;;;;;;;;;;5074798;28;20020;-86
2022/08/15 11:10:16;;;;;;;14.55;10.30;;;;;;;;;;5075411;28;20020;-85
2022/08/15 11:12:43;;;;;;;13.65;12.25;;;;;;;;;;5062742;28;20485;-86
2022/08/15 11:15:25;;;;;;;11.30;8.93;;;;;;;;;;5075140;28;20051;-88
2022/08/15 11:18:04;;;;;;;9.80;8.57;;;;;;;;;;5074646;28;20489;-86
2022/08/15 11:20:44;;;;;;;10.38;8.48;;;;;;;;;;5074408;28;20032;-86
2022/08/15 11:23:10;;;;;;;10.57;8.93;;;;;;;;;;5074568;28;20023;-84
2022/08/15 11:25:39;;;;;;;10.45;9.35;;;;;;;;;;5074547;28;20455;-84
2022/08/15 11:28:08;;;;;;;16.30;8.45;;;;;;;;;;5074584;28;20028;-85
2022/08/15 11:30:37;;;;;;;10.10;9.10;;;;;;;;;;5074506;28;20033;-86
2022/08/15 11:33:22;;;;;;;10.02;8.20;;;;;;;;;;5074277;28;20397;-85
2022/08/15 11:35:49;;;;;;;16.02;10.70;;;;;;;;;;5074317;28;20033;-84
2022/08/15 11:38:16;;;;;;;9.63;8.30;;;;;;;;;;5074044;28;20086;-84
2022/08/15 11:40:43;;;;;;;10.85;8.27;;;;;;;;;;5075637;28;20035;-83
2022/08/15 11:43:14;;;;;;;12.88;8.82;;;;;;;;;;5074834;28;20020;-83
2022/08/15 11:45:45;;;;;;;8.95;8.13;;;;;;;;;;5075368;28;20021;-84
2022/08/15 11:48:13;;;;;;;10.95;9.85;;;;;;;;;;5073851;28;20031;-81
2022/08/15 11:50:41;;;;;;;10.15;8.95;;;;;;;;;;5073840;28;20032;-83
2022/08/15 11:53:11;;;;;;;10.57;8.45;;;;;;;;;;5073635;28;20043;-83
2022/08/15 11:55:39;;;;;;;9.60;8.60;;;;;;;;;;5074022;28;20028;-84
2022/08/15 11:58:14;;;;;;;16.25;8.77;;;;;;;;;;5073976;28;20056;-84
2022/08/15 12:00:45;;;;;;;11.82;9.68;;;;;;;;;;5063060;28;20120;-84
2022/08/15 12:03:17;;;;;;;11.57;10.37;;;;;;;;;;5053673;28;20021;-85
2022/08/15 12:05:44;;;;;;;11.20;8.57;;;;;;;;;;5053729;28;20599;-85
2022/08/15 12:08:10;;;;;;;13.27;11.77;;;;;;;;;;5053806;28;20021;-84
2022/08/15 12:10:39;;;;;;;11.57;10.07;;;;;;;;;;5053773;28;20033;-85
2022/08/15 12:13:06;;;;;;;15.60;12.73;;;;;;;;;;5053888;28;20079;-85
2022/08/15 12:15:32;;;;;;;11.20;10.02;;;;;;;;;;5053556;28;20059;-87
2022/08/15 12:18:11;;;;;;;10.98;8.45;;;;;;;;;;5054567;28;20544;-83
2022/08/15 12:20:48;;;;;;;12.80;9.60;;;;;;;;;;5063620;28;20067;-87
2022/08/15 12:23:35;;;;;;;11.80;10.60;;;;;;;;;;5077826;28;20020;-86
2022/08/15 12:26:03;;;;;;;16.30;10.38;;;;;;;;;;5060780;28;20036;-84
2022/08/15 12:28:30;;;;;;;10.18;9.18;;;;;;;;;;5057685;28;20075;-85
2022/08/15 12:30:58;;;;;;;11.20;9.27;;;;;;;;;;5056941;28;20036;-83
2022/08/15 12:33:25;;;;;;;10.45;9.32;;;;;;;;;;5054503;28;20059;-83
2022/08/15 12:35:51;;;;;;;10.85;8.55;;;;;;;;;;5054992;28;20033;-83
2022/08/15 12:38:18;;;;;;;10.05;7.15;;;;;;;;;;5055085;28;20060;-81
2022/08/15 12:40:44;;;;;;;10.50;7.25;;;;;;;;;;5054042;28;20021;-83
2022/08/15 12:43:10;;;;;;;9.07;7.22;;;;;;;;;;5052920;28;20025;-84
2022/08/15 12:45:38;;;;;;;16.83;15.00;;;;;;;;;;5052976;28;20025;-83
2022/08/15 12:48:07;;;;;;;18.33;14.43;;;;;;;;;;5052413;28;20116;-82
2022/08/15 12:50:34;;;;;;;10.90;9.88;;;;;;;;;;5052416;28;20057;-82
2022/08/15 12:53:01;;;;;;;10.15;9.13;;;;;;;;;;5052744;28;20025;-84
2022/08/15 12:55:30;;;;;;;10.32;9.10;;;;;;;;;;5052757;28;20036;-82
2022/08/15 12:57:56;;;;;;;9.15;8.15;;;;;;;;;;5052146;28;20120;-83
2022/08/15 13:00:22;;;;;;;8.57;7.60;;;;;;;;;;5052783;28;20057;-84
2022/08/15 13:02:49;;;;;;;10.07;7.88;;;;;;;;;;5052626;28;20021;-83
2022/08/15 13:05:23;;;;;;;8.63;7.72;;;;;;;;;;5052233;28;20028;-83
2022/08/15 13:07:49;;;;;;;10.82;8.15;;;;;;;;;;5052637;28;20029;-83
2022/08/15 13:10:17;;;;;;;8.48;7.15;;;;;;;;;;5052501;28;20037;-84
2022/08/15 13:12:44;;;;;;;8.50;7.68;;;;;;;;;;5052165;28;20025;-82
2022/08/15 13:15:10;;;;;;;9.05;8.00;;;;;;;;;;5052510;28;20056;-81
2022/08/15 13:17:36;;;;;;;8.50;7.05;;;;;;;;;;5039620;28;20095;-81
2022/08/15 13:25:33;;;;;;;10.23;8.98;;;;;;;;;;5033428;28;20029;-82
2022/08/15 13:27:59;;;;;;;9.02;7.97;;;;;;;;;;5016245;28;20060;-84
2022/08/15 13:30:25;;;;;;;9.63;7.68;;;;;;;;;;5015850;28;20025;-83
2022/08/15 13:32:51;;;;;;;13.07;7.57;;;;;;;;;;5015963;28;20026;-84
2022/08/15 13:35:19;;;;;;;13.02;10.02;;;;;;;;;;5015853;28;20027;-84
2022/08/15 13:37:47;;;;;;;15.93;14.32;;;;;;;;;;5015925;28;20049;-83
2022/08/15 13:40:23;;;;;;;9.52;7.53;;;;;;;;;;5015780;28;20032;-83
2022/08/15 13:42:49;;;;;;;8.77;7.72;;;;;;;;;;5015639;28;20029;-83
2022/08/15 13:45:17;;;;;;;8.93;7.88;;;;;;;;;;5016102;28;20467;-83
2022/08/15 13:47:44;;;;;;;8.55;7.53;;;;;;;;;;5015770;28;20036;-83
2022/08/15 13:50:10;;;;;;;9.07;8.18;;;;;;;;;;5016865;28;20427;-83
2022/08/15 13:52:37;;;;;;;13.70;6.90;;;;;;;;;;5019575;28;20021;-83
2022/08/15 13:55:04;;;;;;;10.38;8.35;;;;;;;;;;5019153;28;20058;-84
2022/08/15 13:57:30;;;;;;;11.15;7.47;;;;;;;;;;5019834;28;20394;-86
2022/08/15 14:00:11;;;;;;;14.05;9.40;;;;;;;;;;5019392;28;20030;-86
2022/08/15 14:02:41;;;;;;;9.15;7.38;;;;;;;;;;5020111;28;20022;-85
2022/08/15 14:05:08;;;;;;;9.52;6.82;;;;;;;;;;5019752;28;20017;-88
2022/08/15 14:07:38;;;;;;;8.43;7.45;;;;;;;;;;5019399;28;20025;-86
2022/08/15 14:10:05;;;;;;;13.25;8.23;;;;;;;;;;5019620;28;20068;-85
2022/08/15 14:12:37;;;;;;;12.93;9.25;;;;;;;;;;5019862;28;20032;-87
2022/08/15 14:15:04;;;;;;;10.60;8.38;;;;;;;;;;5018987;28;20022;-84
2022/08/15 14:17:30;;;;;;;7.82;6.35;;;;;;;;;;5041502;28;20171;-85
2022/08/15 14:19:57;;;;;;;10.52;9.43;;;;;;;;;;5058924;28;20059;-86
2022/08/15 14:22:23;;;;;;;14.35;9.70;;;;;;;;;;5058752;28;20020;-83
2022/08/15 14:24:49;;;;;;;9.32;7.45;;;;;;;;;;5059343;28;20078;-89
2022/08/15 14:27:31;;;;;;;7.85;7.05;;;;;;;;;;5059271;28;20044;-86
2022/08/15 14:29:58;;;;;;;9.18;7.68;;;;;;;;;;5059032;28;20030;-86
2022/08/15 14:32:25;;;;;;;7.40;6.32;;;;;;;;;;5058617;28;20082;-87
2022/08/15 14:34:51;;;;;;;7.20;6.47;;;;;;;;;;5058827;28;20051;-86
2022/08/15 14:37:20;;;;;;;8.45;6.80;;;;;;;;;;5058909;28;20029;-85
2022/08/15 14:39:47;;;;;;;11.98;9.65;;;;;;;;;;5058862;28;20025;-83
2022/08/15 14:42:17;;;;;;;9.40;7.13;;;;;;;;;;5060016;28;20071;-85
2022/08/15 14:44:44;;;;;;;11.20;7.00;;;;;;;;;;5079116;28;20110;-87
2022/08/15 14:47:11;;;;;;;10.43;8.10;;;;;;;;;;5078982;28;20473;-88
2022/08/15 14:49:39;;;;;;;8.77;7.00;;;;;;;;;;5078790;28;20028;-85
2022/08/15 14:52:07;;;;;;;7.10;5.82;;;;;;;;;;5078899;28;20020;-85
2022/08/15 14:54:33;;;;;;;7.95;6.18;;;;;;;;;;5079269;28;20107;-87
2022/08/15 14:57:00;;;;;;;9.60;8.10;;;;;;;;;;5078448;28;20445;-88
2022/08/15 14:59:26;;;;;;;8.25;6.25;;;;;;;;;;5078021;28;20107;-84
2022/08/15 15:01:52;;;;;;;15.05;12.73;;;;;;;;;;5062971;28;20074;-86
2022/08/15 15:04:18;;;;;;;10.35;7.90;;;;;;;;;;5058426;28;20017;-85
2022/08/15 15:06:45;;;;;;;12.60;8.95;;;;;;;;;;5057888;28;20457;-83
2022/08/15 15:09:12;;;;;;;8.80;6.03;;;;;;;;;;5057721;28;20111;-85
2022/08/15 15:11:38;;;;;;;6.90;5.90;;;;;;;;;;5057816;28;20465;-84
2022/08/15 15:14:05;;;;;;;11.40;6.75;;;;;;;;;;5057714;28;20025;-82